CheckWX is a tool to help pilots better visualize weather data.  It is not intended as a substitute for an official pre-flight weather briefing.

06:07:36 UTC

KSQL METAR
San Carlos Airport
San Carlos, California, USA
Current

13 mins ago

KSQL 230555Z AUTO 00000KT 7SM CLR 16/13 A3001 RMK AO2
Observed
Apr-23 @ 05:55 UTC
Visibility
7 SM
Flight Rules
VFR
Cloud Levels
  • Clear skies
Temperature
16°C / 61°F
Dewpoint
13°C / 55°F
Humidity
83%
Altimeter
30.01" Hg
Pressure
1016.22 hPa
Previous

33 mins ago

KSQL 230535Z AUTO 00000KT 8SM CLR 17/12 A3002 RMK AO2
Observed
Apr-23 @ 05:35 UTC
Visibility
8 SM
Flight Rules
VFR
Cloud Levels
  • Clear skies
Temperature
17°C / 63°F
Dewpoint
12°C / 54°F
Humidity
73%
Altimeter
30.02" Hg
Pressure
1016.62 hPa
Previous

53 mins ago

KSQL 230515Z AUTO 00000KT 8SM FEW003 17/12 A3001 RMK AO2
Observed
Apr-23 @ 05:15 UTC
Visibility
8 SM
Flight Rules
VFR
Cloud Levels
  • Few at 300' AGL
Temperature
17°C / 63°F
Dewpoint
12°C / 54°F
Humidity
73%
Altimeter
30.01" Hg
Pressure
1016.22 hPa